Time;durP1;ratioP1;P1;durP2;ratioP2;P2;SDS_P1;SDS_P2;PMS_P1;PMS_P2;Temp;Humidity;BMP_temperature;BMP_pressure;BME280_temperature;BME280_humidity;BME280_pressure;Samples;Min_cycle;Max_cycle;Signal;HPM_P1;HPM_P2
2022/08/10 01:12:31;;;;;;;;;;;;;;;;;;;;;
2022/08/10 01:13:01;;;;;;;;;;;29.10;48.00;;;;;;861374;23;1340;-90
2022/08/10 01:13:34;;;;;;;;;;;29.10;48.10;;;;;;861102;23;1195;-93
2022/08/10 01:13:55;;;;;;;;;;;;;;;;;;852623;23;1372;-92
2022/08/10 01:14:26;;;;;;;;;;;29.10;48.10;;;;;;852640;23;1335;-90
2022/08/10 01:14:57;;;;;;;;;;;29.10;48.10;;;;;;848808;23;1196;-87
2022/08/10 01:15:18;;;;;;;;;;;29.10;48.20;;;;;;852103;23;1199;-91
2022/08/10 01:16:00;;;;;;;;;;;29.10;48.30;;;;;;852938;23;1190;-87
2022/08/10 01:16:26;;;;;;;;;;;29.10;48.50;;;;;;852557;23;1179;-93
2022/08/10 01:16:52;;;;;;;;;;;29.00;48.50;;;;;;852854;23;1262;-92
2022/08/10 01:17:18;;;;;;;;;;;29.00;48.50;;;;;;853013;23;1315;-93
2022/08/10 01:17:45;;;;;;;;;;;29.10;48.60;;;;;;848997;23;1254;-94
2022/08/10 01:18:13;;;;;;;;;;;29.10;48.50;;;;;;849553;23;1289;-93
2022/08/10 01:18:46;;;;;;;;;;;29.00;48.50;;;;;;848704;23;1408;-92
2022/08/10 01:19:18;;;;;;;;;;;29.00;48.50;;;;;;847038;23;1171;-94
2022/08/10 01:19:51;;;;;;;;;;;29.00;48.50;;;;;;844941;23;1271;-94
2022/08/10 01:20:18;;;;;;;;;;;29.10;48.60;;;;;;848359;23;1252;-93
2022/08/10 01:20:54;;;;;;;;;;;29.10;48.50;;;;;;850093;23;1383;-94
2022/08/10 01:21:24;;;;;;;;;;;29.10;48.50;;;;;;852903;23;1214;-94
2022/08/10 01:22:03;;;;;;;;;;;29.00;48.50;;;;;;853127;23;1211;-92
2022/08/10 01:22:43;;;;;;;;;;;29.10;48.50;;;;;;849141;23;1403;-92
2022/08/10 01:23:12;;;;;;;;;;;29.10;48.50;;;;;;849203;23;1220;-96
2022/08/10 01:23:39;;;;;;;;;;;29.00;48.50;;;;;;847616;23;1193;-95
2022/08/10 01:24:19;;;;;;;;;;;29.10;48.50;;;;;;849051;23;1345;-93
2022/08/10 01:24:39;;;;;;;;;;;29.10;48.50;;;;;;853662;23;818;-94
2022/08/10 01:25:19;;;;;;;;;;;29.00;48.40;;;;;;848812;23;1156;-94
2022/08/10 01:25:57;;;;;;;;;;;29.10;48.40;;;;;;848799;23;1177;-88
2022/08/10 01:26:23;;;;;;;;;;;29.10;48.40;;;;;;848764;23;1319;-94
2022/08/10 01:27:10;;;;;;;;;;;29.00;48.30;;;;;;849367;23;1230;-94
2022/08/10 01:27:50;;;;;;;;;;;29.10;48.50;;;;;;845582;23;1921;-88
2022/08/10 01:28:29;;;;;;;;;;;29.10;48.40;;;;;;852300;23;1207;-90
2022/08/10 01:29:02;;;;;;;;;;;29.10;48.40;;;;;;848877;23;1337;-91
2022/08/10 01:29:41;;;;;;;;;;;29.10;48.40;;;;;;848984;23;1320;-94
2022/08/10 01:30:05;;;;;;;;;;;29.10;48.40;;;;;;849031;23;1054;-92
2022/08/10 01:30:28;;;;;;;;;;;29.10;48.30;;;;;;848543;23;1315;-92
2022/08/10 01:30:52;;;;;;;;;;;29.10;48.30;;;;;;848978;23;1240;-91
2022/08/10 01:31:16;;;;;;;;;;;29.10;48.40;;;;;;845506;23;1337;-93
2022/08/10 01:31:40;;;;;;;;;;;29.10;48.30;;;;;;849849;23;1394;-96
2022/08/10 01:32:05;;;;;;;;;;;29.10;48.40;;;;;;845445;23;1431;-93
2022/08/10 01:32:37;;;;;;;;;;;29.10;48.30;;;;;;849079;23;1351;-91
2022/08/10 01:33:03;;;;;;;;;;;29.10;48.20;;;;;;848996;23;979;-94
2022/08/10 01:33:28;;;;;;;;;;;29.10;48.30;;;;;;846764;23;1331;-96
2022/08/10 01:33:56;;;;;;;;;;;29.10;48.30;;;;;;846041;23;1447;-94
2022/08/10 01:34:21;;;;;;;;;;;29.10;48.30;;;;;;849245;23;1311;-94
2022/08/10 01:34:43;;;;;;;;;;;29.10;48.30;;;;;;848793;23;1410;-92
2022/08/10 01:35:39;;;;;;;;;;;29.10;48.30;;;;;;848938;23;821;-93
2022/08/10 01:36:00;;;;;;;;;;;;;;;;;;836847;23;1226;-94
2022/08/10 01:36:27;;;;;;;;;;;29.10;48.40;;;;;;836850;23;1232;-92
2022/08/10 01:36:52;;;;;;;;;;;29.10;48.30;;;;;;837376;23;1223;-92
2022/08/10 01:37:17;;;;;;;;;;;29.10;48.30;;;;;;837161;23;1302;-95
2022/08/10 01:37:45;;;;;;;;;;;29.10;48.40;;;;;;834481;23;1418;-95
2022/08/10 01:38:19;;;;;;;;;;;29.10;48.30;;;;;;833329;23;1325;-96
2022/08/10 01:38:45;;;;;;;;;;;29.10;48.20;;;;;;832162;23;1406;-96
2022/08/10 01:39:13;;;;;;;;;;;29.10;48.10;;;;;;835684;23;1398;-96
2022/08/10 01:39:40;;;;;;;;;;;29.00;48.10;;;;;;839365;23;1074;-95
2022/08/10 01:40:15;;;;;;;;;;;29.10;48.30;;;;;;834495;23;1135;-87
2022/08/10 01:40:41;;;;;;;;;;;29.00;48.10;;;;;;829935;23;1562;-95
2022/08/10 01:41:07;;;;;;;;;;;29.10;48.30;;;;;;828094;23;1516;-92
2022/08/10 01:41:30;;;;;;;;;;;29.10;48.30;;;;;;825781;23;1285;-94
2022/08/10 01:41:55;;;;;;;;;;;29.10;48.20;;;;;;825708;23;1165;-95
2022/08/10 01:42:18;;;;;;;;;;;29.10;48.30;;;;;;829674;23;1314;-94
2022/08/10 01:42:42;;;;;;;;;;;29.10;48.30;;;;;;833839;23;1176;-94
2022/08/10 01:43:05;;;;;;;;;;;29.10;48.30;;;;;;837418;23;1165;-95
2022/08/10 01:43:29;;;;;;;;;;;29.10;48.30;;;;;;833513;23;1214;-94
2022/08/10 01:44:05;;;;;;;;;;;29.10;48.30;;;;;;834328;23;978;-94
2022/08/10 01:44:33;;;;;;;;;;;29.10;48.10;;;;;;835767;23;923;-95
2022/08/10 01:44:55;;;;;;;;;;;29.10;48.30;;;;;;834824;23;1308;-93
2022/08/10 01:45:19;;;;;;;;;;;29.10;48.30;;;;;;839409;23;956;-90
2022/08/10 01:45:47;;;;;;;;;;;29.10;48.10;;;;;;835422;23;1313;-96
2022/08/10 01:46:22;;;;;;;;;;;29.10;48.20;;;;;;841834;23;930;-90
2022/08/10 01:48:27;;;;;;;;;;;29.10;48.20;;;;;;840313;23;970;-96
2022/08/10 01:49:21;;;;;;;;;;;29.10;48.20;;;;;;840768;23;962;-86
2022/08/10 01:49:55;;;;;;;;;;;29.10;48.20;;;;;;830547;23;1087;-93
2022/08/10 01:50:28;;;;;;;;;;;29.10;48.20;;;;;;834175;23;1307;-95
2022/08/10 01:50:52;;;;;;;;;;;29.10;48.20;;;;;;833974;23;1149;-95
2022/08/10 01:51:32;;;;;;;;;;;29.10;48.10;;;;;;827000;23;923;-94
2022/08/10 01:52:18;;;;;;;;;;;29.10;48.10;;;;;;836953;23;1151;-96
2022/08/10 01:52:41;;;;;;;;;;;29.10;48.10;;;;;;830311;23;1257;-94
2022/08/10 01:53:05;;;;;;;;;;;29.10;48.10;;;;;;828943;23;1331;-94
2022/08/10 01:53:40;;;;;;;;;;;29.10;48.30;;;;;;829775;23;1274;-96
2022/08/10 01:54:09;;;;;;;;;;;29.10;48.20;;;;;;825624;23;1187;-89
2022/08/10 01:54:31;;;;;;;;;;;29.00;48.10;;;;;;821726;24;1668;-94
2022/08/10 01:54:54;;;;;;;;;;;29.10;48.10;;;;;;819072;23;1256;-94
2022/08/10 01:55:23;;;;;;;;;;;29.10;48.20;;;;;;823168;24;1408;-96
2022/08/10 01:55:50;;;;;;;;;;;29.10;48.20;;;;;;826834;23;1454;-95
2022/08/10 01:56:23;;;;;;;;;;;29.10;48.20;;;;;;830552;23;1176;-88
2022/08/10 01:56:45;;;;;;;;;;;29.10;48.20;;;;;;827085;23;1249;-93
2022/08/10 01:57:06;;;;;;;;;;;29.10;48.20;;;;;;828987;23;1262;-94
2022/08/10 01:57:31;;;;;;;;;;;29.10;48.20;;;;;;829429;23;973;-94
2022/08/10 01:57:52;;;;;;;;;;;29.10;48.20;;;;;;828239;23;1374;-93
2022/08/10 01:58:14;;;;;;;;;;;29.10;48.20;;;;;;828668;23;1309;-93
2022/08/10 01:58:35;;;;;;;;;;;29.10;48.20;;;;;;830519;23;1272;-95
2022/08/10 01:58:58;;;;;;;;;;;29.10;48.30;;;;;;831176;23;1338;-93
2022/08/10 01:59:29;;;;;;;;;;;29.10;48.10;;;;;;827762;23;1283;-95
2022/08/10 01:59:57;;;;;;;;;;;29.10;48.10;;;;;;833753;23;1008;-92
2022/08/10 02:00:18;;;;;;;;;;;29.10;48.10;;;;;;833408;23;1320;-91
2022/08/10 02:00:41;;;;;;;;;;;;;;;;;;829964;23;1700;-94
2022/08/10 02:01:03;;;;;;;;;;;;;;;;;;828224;23;1081;-92
2022/08/10 02:01:30;;;;;;;;;;;29.10;48.10;;;;;;830634;23;915;-95
2022/08/10 02:01:52;;;;;;;;;;;;;;;;;;830448;23;1743;-96
2022/08/10 02:02:27;;;;;;;;;;;29.10;48.20;;;;;;834711;23;849;-90
2022/08/10 02:02:49;;;;;;;;;;;29.10;48.10;;;;;;830008;23;1711;-88
2022/08/10 02:03:11;;;;;;;;;;;29.10;48.10;;;;;;828941;23;1190;-93
2022/08/10 02:03:34;;;;;;;;;;;29.10;48.10;;;;;;829214;23;900;-94
2022/08/10 02:03:58;;;;;;;;;;;29.10;48.10;;;;;;829035;23;1365;-95
2022/08/10 02:04:19;;;;;;;;;;;29.00;48.20;;;;;;829010;23;1191;-96
2022/08/10 02:04:42;;;;;;;;;;;29.00;48.30;;;;;;833593;23;1300;-94
2022/08/10 02:05:04;;;;;;;;;;;29.00;48.30;;;;;;831080;23;1319;-92
2022/08/10 02:05:26;;;;;;;;;;;29.00;48.30;;;;;;828952;23;1166;-94
2022/08/10 02:05:48;;;;;;;;;;;29.00;48.30;;;;;;824948;24;1261;-93
2022/08/10 02:06:11;;;;;;;;;;;29.00;48.30;;;;;;828503;23;1140;-88
2022/08/10 02:06:40;;;;;;;;;;;29.00;48.30;;;;;;831985;23;1226;-88
2022/08/10 02:07:01;;;;;;;;;;;29.00;48.40;;;;;;827719;23;1135;-91
2022/08/10 02:07:23;;;;;;;;;;;28.90;48.30;;;;;;830658;23;1874;-95
2022/08/10 02:07:45;;;;;;;;;;;29.00;48.40;;;;;;834419;23;1193;-91
2022/08/10 02:08:11;;;;;;;;;;;29.00;48.40;;;;;;834459;23;1178;-92
2022/08/10 02:08:33;;;;;;;;;;;29.00;48.40;;;;;;831118;23;1229;-90
2022/08/10 02:08:57;;;;;;;;;;;29.00;48.40;;;;;;826433;23;1372;-91
2022/08/10 02:09:31;;;;;;;;;;;29.00;48.40;;;;;;827458;23;1429;-89
2022/08/10 02:09:53;;;;;;;;;;;29.00;48.40;;;;;;827758;23;953;-87
2022/08/10 02:10:29;;;;;;;;;;;28.90;48.30;;;;;;831827;23;1233;-87
2022/08/10 02:10:51;;;;;;;;;;;;;;;;;;836218;23;884;-88
2022/08/10 02:11:17;;;;;;;;;;;28.90;48.40;;;;;;837777;23;1121;-94
2022/08/10 02:11:39;;;;;;;;;;;29.00;48.50;;;;;;836689;23;1215;-90
2022/08/10 02:12:07;;;;;;;;;;;;;;;;;;836150;23;1281;-92
2022/08/10 02:12:37;;;;;;;;;;;29.00;48.50;;;;;;836112;23;1187;-94
2022/08/10 02:13:00;;;;;;;;;;;28.90;48.40;;;;;;837698;23;1072;-96
2022/08/10 02:13:21;;;;;;;;;;;;;;;;;;840537;23;1307;-95
2022/08/10 02:13:44;;;;;;;;;;;28.90;48.40;;;;;;836479;23;1214;-95
2022/08/10 02:14:18;;;;;;;;;;;28.90;48.40;;;;;;836387;23;1100;-88
2022/08/10 02:14:46;;;;;;;;;;;28.90;48.60;;;;;;833295;23;1001;-93
2022/08/10 02:15:10;;;;;;;;;;;28.90;48.70;;;;;;837314;23;1119;-96
2022/08/10 02:15:32;;;;;;;;;;;28.90;48.60;;;;;;840490;23;1316;-96
2022/08/10 02:15:54;;;;;;;;;;;28.90;48.60;;;;;;839603;23;1448;-89
2022/08/10 02:16:18;;;;;;;;;;;28.90;48.60;;;;;;839696;23;1209;-92
2022/08/10 02:16:42;;;;;;;;;;;28.90;48.60;;;;;;840386;23;1348;-91
2022/08/10 02:17:05;;;;;;;;;;;28.80;48.60;;;;;;840335;23;1154;-92
2022/08/10 02:17:34;;;;;;;;;;;28.80;48.60;;;;;;840414;23;945;-91
2022/08/10 02:17:58;;;;;;;;;;;28.80;48.70;;;;;;840576;23;779;-92
2022/08/10 02:18:28;;;;;;;;;;;28.80;48.60;;;;;;836361;23;1431;-93
2022/08/10 02:18:52;;;;;;;;;;;28.80;48.60;;;;;;837553;23;1036;-92
2022/08/10 02:19:21;;;;;;;;;;;28.80;48.70;;;;;;840413;23;995;-96
2022/08/10 02:19:52;;;;;;;;;;;28.80;48.90;;;;;;836512;23;1309;-95
2022/08/10 02:22:46;;;;;;;;;;;28.90;48.80;;;;;;864324;22;1679;-93
2022/08/10 02:29:57;;;;;;;;;;;28.90;48.50;;;;;;862925;22;1295;-96
2022/08/10 02:30:36;;;;;;;;;;;;;;;;;;;;;
2022/08/10 02:31:07;;;;;;;;;;;28.90;48.90;;;;;;858112;23;1021;-94
2022/08/10 02:31:47;;;;;;;;;;;28.90;48.90;;;;;;854216;23;1276;-89
2022/08/10 02:34:43;;;;;;;;;;;28.90;48.60;;;;;;862064;22;1335;-95
2022/08/10 02:35:30;;;;;;;;;;;28.80;48.70;;;;;;866760;22;544;-95
2022/08/10 02:35:57;;;;;;;;;;;28.80;48.90;;;;;;861659;23;1179;-96
2022/08/10 02:36:28;;;;;;;;;;;28.80;48.90;;;;;;858490;23;1277;-96
2022/08/10 02:37:07;;;;;;;;;;;;;;;;;;;;;
2022/08/10 02:37:35;;;;;;;;;;;28.50;48.70;;;;;;849169;23;1023;-96
2022/08/10 02:38:09;;;;;;;;;;;28.80;49.00;;;;;;849022;23;1164;-95
2022/08/10 02:38:35;;;;;;;;;;;32.40;51.80;;;;;;849460;23;1131;-96
2022/08/10 02:38:57;;;;;;;;;;;28.80;49.10;;;;;;848902;23;1145;-93
2022/08/10 02:39:19;;;;;;;;;;;28.80;49.00;;;;;;850581;23;1144;-93
2022/08/10 02:39:40;;;;;;;;;;;28.80;49.00;;;;;;857303;23;1368;-95
2022/08/10 02:40:01;;;;;;;;;;;30.00;50.00;;;;;;857343;23;1346;-96
2022/08/10 02:40:33;;;;;;;;;;;28.70;49.00;;;;;;857393;23;1370;-92
2022/08/10 02:41:03;;;;;;;;;;;28.70;49.20;;;;;;862254;23;1375;-94
2022/08/10 02:41:54;;;;;;;;;;;28.80;49.10;;;;;;862368;23;916;-93
2022/08/10 02:42:27;;;;;;;;;;;28.70;49.00;;;;;;860879;23;1050;-96
2022/08/10 02:43:02;;;;;;;;;;;28.80;49.10;;;;;;858673;23;1211;-93
2022/08/10 02:44:50;;;;;;;;;;;28.70;49.10;;;;;;858545;23;2240;-90
2022/08/10 02:45:28;;;;;;;;;;;28.70;49.10;;;;;;858286;23;971;-95
2022/08/10 02:45:53;;;;;;;;;;;28.80;49.20;;;;;;853923;23;1294;-96
2022/08/10 02:46:44;;;;;;;;;;;28.70;49.10;;;;;;853595;23;1590;-96
2022/08/10 02:47:17;;;;;;;;;;;;;;;;;;854171;23;874;-92
2022/08/10 02:47:49;;;;;;;;;;;28.70;49.20;;;;;;857880;23;1884;-91
2022/08/10 02:48:29;;;;;;;;;;;28.70;49.10;;;;;;858116;23;871;-96
2022/08/10 02:48:52;;;;;;;;;;;;;;;;;;858619;23;882;-93
2022/08/10 02:49:36;;;;;;;;;;;28.70;49.30;;;;;;854179;23;1246;-90
2022/08/10 02:50:45;;;;;;;;;;;28.70;49.30;;;;;;856555;23;856;-90
2022/08/10 02:51:14;;;;;;;;;;;;;;;;;;860643;23;1526;-91
2022/08/10 02:54:49;;;;;;;;;;;28.70;49.40;;;;;;858669;23;981;-95
2022/08/10 02:55:21;;;;;;;;;;;28.70;49.30;;;;;;856991;23;949;-89
2022/08/10 02:55:54;;;;;;;;;;;28.70;49.40;;;;;;854063;23;928;-91
2022/08/10 02:56:19;;;;;;;;;;;28.70;49.60;;;;;;849434;23;1480;-94
2022/08/10 02:57:04;;;;;;;;;;;28.70;49.60;;;;;;845552;23;1290;-91
2022/08/10 02:57:39;;;;;;;;;;;28.70;49.40;;;;;;833162;23;1284;-89
2022/08/10 02:58:25;;;;;;;;;;;28.80;49.30;;;;;;827662;23;1000;-94
2022/08/10 02:58:49;;;;;;;;;;;28.80;49.30;;;;;;822762;24;985;-90
2022/08/10 02:59:15;;;;;;;;;;;28.70;49.20;;;;;;822785;24;1004;-92
2022/08/10 02:59:40;;;;;;;;;;;28.70;49.30;;;;;;821712;24;1566;-89
2022/08/10 03:00:02;;;;;;;;;;;;;;;;;;824865;24;1038;-92
2022/08/10 03:00:23;;;;;;;;;;;28.70;49.40;;;;;;821866;24;1176;-94
2022/08/10 03:00:55;;;;;;;;;;;28.70;49.40;;;;;;822037;24;1124;-89
2022/08/10 03:01:18;;;;;;;;;;;28.70;49.40;;;;;;824026;24;884;-96
2022/08/10 03:01:46;;;;;;;;;;;28.80;49.40;;;;;;824064;24;1219;-91
2022/08/10 03:02:09;;;;;;;;;;;28.70;49.40;;;;;;825203;24;1322;-91
2022/08/10 03:02:33;;;;;;;;;;;28.70;49.50;;;;;;827254;23;1304;-91
2022/08/10 03:02:55;;;;;;;;;;;28.80;49.40;;;;;;828146;23;1387;-90
2022/08/10 03:03:21;;;;;;;;;;;28.70;49.30;;;;;;824087;24;1055;-88
2022/08/10 03:03:50;;;;;;;;;;;28.80;49.40;;;;;;824273;24;1306;-94
2022/08/10 03:04:11;;;;;;;;;;;;;;;;;;824520;24;1279;-89
2022/08/10 03:04:34;;;;;;;;;;;28.80;49.40;;;;;;820571;24;1313;-90
2022/08/10 03:05:01;;;;;;;;;;;28.70;49.30;;;;;;816832;24;1207;-94
2022/08/10 03:05:22;;;;;;;;;;;;;;;;;;815932;24;1245;-90
2022/08/10 03:05:42;;;;;;;;;;;;;;;;;;823342;24;1217;-88
2022/08/10 03:06:07;;;;;;;;;;;28.80;49.40;;;;;;821238;24;1259;-89
2022/08/10 03:07:57;;;;;;;;;;;28.80;49.30;;;;;;823905;24;1917;-89
2022/08/10 03:08:23;;;;;;;;;;;28.80;49.30;;;;;;825783;24;1191;-95
2022/08/10 03:08:44;;;;;;;;;;;28.80;49.30;;;;;;824823;24;1307;-95
2022/08/10 03:09:05;;;;;;;;;;;28.80;49.40;;;;;;820900;24;1253;-93
2022/08/10 03:09:27;;;;;;;;;;;28.70;49.30;;;;;;817177;24;1044;-95
2022/08/10 03:09:49;;;;;;;;;;;28.80;49.30;;;;;;817124;24;1261;-96
2022/08/10 03:10:12;;;;;;;;;;;28.80;49.30;;;;;;817126;24;1353;-93
2022/08/10 03:10:40;;;;;;;;;;;28.80;49.20;;;;;;815002;24;1414;-95
2022/08/10 03:11:06;;;;;;;;;;;28.80;49.20;;;;;;823798;23;1262;-96
2022/08/10 03:11:28;;;;;;;;;;;28.80;49.10;;;;;;824789;24;1281;-93
2022/08/10 03:11:50;;;;;;;;;;;28.80;49.30;;;;;;817133;24;1218;-96
2022/08/10 03:12:12;;;;;;;;;;;28.80;49.30;;;;;;820926;24;1258;-95
2022/08/10 03:12:34;;;;;;;;;;;28.80;49.20;;;;;;820892;24;1352;-94
2022/08/10 03:12:59;;;;;;;;;;;28.80;49.10;;;;;;817086;24;1056;-96
2022/08/10 03:13:20;;;;;;;;;;;28.80;49.20;;;;;;819506;24;1059;-96
2022/08/10 03:13:41;;;;;;;;;;;;;;;;;;823053;23;1117;-96
2022/08/10 03:14:03;;;;;;;;;;;28.80;49.10;;;;;;818699;24;1404;-96
2022/08/10 03:14:27;;;;;;;;;;;28.80;49.10;;;;;;819045;24;1238;-96
2022/08/10 03:14:48;;;;;;;;;;;;;;;;;;823153;24;1280;-94
2022/08/10 03:15:10;;;;;;;;;;;28.80;49.20;;;;;;824706;24;1278;-96
2022/08/10 03:15:32;;;;;;;;;;;28.80;49.10;;;;;;822301;24;1152;-96
2022/08/10 03:15:55;;;;;;;;;;;28.80;49.10;;;;;;823135;24;1045;-96
2022/08/10 03:16:19;;;;;;;;;;;28.80;49.10;;;;;;820896;24;1261;-94
2022/08/10 03:16:44;;;;;;;;;;;28.80;49.10;;;;;;818692;24;1480;-95
2022/08/10 03:17:08;;;;;;;;;;;28.80;49.10;;;;;;821510;24;1338;-95
2022/08/10 03:17:29;;;;;;;;;;;28.80;49.10;;;;;;823924;24;1220;-96
2022/08/10 03:17:51;;;;;;;;;;;28.90;49.20;;;;;;820939;24;1326;-96
2022/08/10 03:18:12;;;;;;;;;;;28.80;49.20;;;;;;820821;24;1267;-95
2022/08/10 03:18:33;;;;;;;;;;;28.80;49.00;;;;;;822519;24;1380;-96
2022/08/10 03:18:55;;;;;;;;;;;28.80;49.10;;;;;;820653;24;1343;-92
2022/08/10 03:19:16;;;;;;;;;;;28.80;49.10;;;;;;820955;24;1040;-95
2022/08/10 03:19:37;;;;;;;;;;;28.80;49.00;;;;;;822240;24;1350;-96
2022/08/10 03:19:58;;;;;;;;;;;28.80;49.10;;;;;;819841;24;1206;-96
2022/08/10 03:20:20;;;;;;;;;;;28.80;49.00;;;;;;817082;24;1254;-95
2022/08/10 03:20:41;;;;;;;;;;;28.80;48.90;;;;;;813498;24;1365;-96
2022/08/10 03:21:03;;;;;;;;;;;28.80;49.00;;;;;;817446;24;1259;-93
2022/08/10 03:21:26;;;;;;;;;;;28.80;49.10;;;;;;817130;24;1182;-95
2022/08/10 03:21:48;;;;;;;;;;;28.80;49.10;;;;;;818732;24;1403;-96
2022/08/10 03:22:09;;;;;;;;;;;28.80;49.10;;;;;;818917;23;1241;-96
2022/08/10 03:22:30;;;;;;;;;;;28.80;49.00;;;;;;818428;23;1231;-96
2022/08/10 03:22:54;;;;;;;;;;;28.90;49.10;;;;;;815833;24;1296;-96
2022/08/10 03:23:22;;;;;;;;;;;28.80;49.00;;;;;;816799;24;1324;-93
2022/08/10 03:23:46;;;;;;;;;;;28.80;49.00;;;;;;816963;24;1190;-92
2022/08/10 03:24:08;;;;;;;;;;;28.80;49.00;;;;;;820364;24;1352;-96
2022/08/10 03:24:29;;;;;;;;;;;28.80;49.00;;;;;;820416;24;1204;-96
2022/08/10 03:24:51;;;;;;;;;;;28.80;49.00;;;;;;820362;24;1263;-96
2022/08/10 03:25:12;;;;;;;;;;;28.90;49.10;;;;;;817601;24;1226;-90
2022/08/10 03:25:34;;;;;;;;;;;28.90;49.00;;;;;;818357;24;1234;-91
2022/08/10 03:25:56;;;;;;;;;;;28.90;49.00;;;;;;824177;24;1190;-91
2022/08/10 03:26:19;;;;;;;;;;;28.80;49.00;;;;;;825386;24;1151;-88
2022/08/10 03:26:40;;;;;;;;;;;28.90;49.00;;;;;;830150;23;1089;-92
2022/08/10 03:27:01;;;;;;;;;;;;;;;;;;827824;23;1277;-92
2022/08/10 03:27:22;;;;;;;;;;;28.80;49.00;;;;;;822336;24;1305;-90
2022/08/10 03:27:46;;;;;;;;;;;28.80;49.00;;;;;;820016;24;1855;-90
2022/08/10 03:28:23;;;;;;;;;;;28.80;49.00;;;;;;818629;24;1309;-89
2022/08/10 03:28:57;;;;;;;;;;;28.90;49.00;;;;;;821639;24;1496;-90
2022/08/10 03:29:45;;;;;;;;;;;28.90;48.90;;;;;;826739;24;1203;-91
2022/08/10 03:30:22;;;;;;;;;;;28.90;49.00;;;;;;823977;24;903;-89
2022/08/10 03:30:54;;;;;;;;;;;28.90;49.00;;;;;;820662;24;911;-92
2022/08/10 03:31:37;;;;;;;;;;;28.90;49.00;;;;;;826196;23;930;-94
2022/08/10 03:32:05;;;;;;;;;;;28.90;49.00;;;;;;825864;23;1315;-95
2022/08/10 03:32:33;;;;;;;;;;;28.90;48.90;;;;;;825955;23;952;-96
2022/08/10 03:33:13;;;;;;;;;;;28.90;49.00;;;;;;826493;24;819;-90
2022/08/10 03:33:41;;;;;;;;;;;28.90;48.90;;;;;;825406;23;1243;-93
2022/08/10 03:34:15;;;;;;;;;;;28.90;48.90;;;;;;822066;24;1541;-94
2022/08/10 03:34:43;;;;;;;;;;;28.90;48.90;;;;;;822135;24;1249;-93
2022/08/10 03:35:17;;;;;;;;;;;28.90;49.00;;;;;;822789;23;903;-92
2022/08/10 03:36:00;;;;;;;;;;;28.90;49.00;;;;;;832385;23;1228;-91
2022/08/10 03:36:27;;;;;;;;;;;28.90;49.00;;;;;;834929;23;992;-88
2022/08/10 03:37:19;;;;;;;;;;;28.90;48.90;;;;;;837750;23;1021;-92
2022/08/10 03:37:58;;;;;;;;;;;28.90;49.00;;;;;;833824;23;1335;-90
2022/08/10 03:38:47;;;;;;;;;;;28.90;49.00;;;;;;837868;23;924;-91
2022/08/10 03:40:12;;;;;;;;;;;28.90;48.90;;;;;;833773;23;1132;-90
2022/08/10 03:41:00;;;;;;;;;;;28.90;49.00;;;;;;832407;23;945;-89
2022/08/10 03:57:35;;;;;;;;;;;;;;;;;;;;;
2022/08/10 03:58:19;;;;;;;;;;;28.90;49.00;;;;;;856651;23;1793;-92
2022/08/10 03:59:25;;;;;;;;;;;28.80;49.30;;;;;;858045;23;976;-92
2022/08/10 04:00:09;;;;;;;;;;;28.80;49.30;;;;;;838932;23;892;-91
2022/08/10 04:01:15;;;;;;;;;;;28.80;49.30;;;;;;838243;23;951;-91
2022/08/10 04:01:42;;;;;;;;;;;;;;;;;;837287;23;1004;-90
2022/08/10 04:02:07;;;;;;;;;;;28.80;49.30;;;;;;834752;23;957;-90
2022/08/10 04:02:49;;;;;;;;;;;28.80;49.20;;;;;;834200;23;984;-90
2022/08/10 04:03:14;;;;;;;;;;;28.80;49.40;;;;;;827093;23;1491;-93
2022/08/10 04:03:37;;;;;;;;;;;28.70;49.30;;;;;;821776;24;1205;-93
2022/08/10 04:03:57;;;;;;;;;;;28.80;49.40;;;;;;825578;23;1389;-94
2022/08/10 04:04:19;;;;;;;;;;;28.70;49.40;;;;;;828664;23;1238;-92
2022/08/10 04:04:50;;;;;;;;;;;28.80;49.40;;;;;;828619;23;1380;-92
2022/08/10 04:05:11;;;;;;;;;;;;;;;;;;829216;23;1265;-91
2022/08/10 04:05:32;;;;;;;;;;;;;;;;;;833061;23;1351;-93
2022/08/10 04:06:07;;;;;;;;;;;28.80;49.30;;;;;;833049;23;1261;-91
2022/08/10 04:06:38;;;;;;;;;;;28.70;49.30;;;;;;833137;23;1546;-91
2022/08/10 04:07:09;;;;;;;;;;;28.80;49.40;;;;;;829766;23;1405;-93
2022/08/10 04:08:03;;;;;;;;;;;;;;;;;;;;;
2022/08/10 04:08:22;;;;;;;;;;;28.80;49.50;;;;;;828533;23;1381;-94
2022/08/10 04:08:54;;;;;;;;;;;28.70;49.50;;;;;;826329;23;1488;-92
2022/08/10 04:09:41;;;;;;;;;;;28.70;49.50;;;;;;828616;23;1249;-94
2022/08/10 04:10:16;;;;;;;;;;;28.80;49.40;;;;;;829195;23;1207;-89
2022/08/10 04:10:47;;;;;;;;;;;28.80;49.40;;;;;;827830;23;1246;-92
2022/08/10 04:11:32;;;;;;;;;;;;;;;;;;;;;
2022/08/10 04:12:03;;;;;;;;;;;28.70;49.40;;;;;;819989;24;1051;-90
2022/08/10 04:12:47;;;;;;;;;;;28.70;49.40;;;;;;811223;24;1175;-91
2022/08/10 04:13:40;;;;;;;;;;;28.70;49.50;;;;;;814113;24;1285;-90
2022/08/10 04:14:11;;;;;;;;;;;;;;;;;;;;;
2022/08/10 04:14:41;;;;;;;;;;;28.70;49.40;;;;;;810774;24;931;-94
2022/08/10 04:15:29;;;;;;;;;;;28.70;49.60;;;;;;807466;24;1395;-94
2022/08/10 04:15:57;;;;;;;;;;;28.70;49.40;;;;;;805514;24;977;-92
2022/08/10 04:17:17;;;;;;;;;;;28.70;49.40;;;;;;799957;24;899;-91
2022/08/10 04:18:02;;;;;;;;;;;28.70;49.40;;;;;;801054;24;1000;-93
2022/08/10 04:20:06;;;;;;;;;;;28.70;49.60;;;;;;806769;24;1307;-91
2022/08/10 04:20:52;;;;;;;;;;;28.60;49.60;;;;;;806657;24;1232;-91
2022/08/10 04:21:42;;;;;;;;;;;28.70;49.80;;;;;;803048;24;1478;-93
2022/08/10 04:22:18;;;;;;;;;;;28.70;49.80;;;;;;803388;24;1321;-90
2022/08/10 04:23:06;;;;;;;;;;;28.60;49.60;;;;;;803828;24;1130;-93
2022/08/10 04:24:28;;;;;;;;;;;28.70;49.80;;;;;;799660;24;1217;-90
2022/08/10 04:25:03;;;;;;;;;;;28.70;49.70;;;;;;803928;24;1423;-92
2022/08/10 04:25:34;;;;;;;;;;;28.70;49.70;;;;;;799322;24;957;-92
2022/08/10 04:26:19;;;;;;;;;;;28.70;49.80;;;;;;799492;24;1083;-87
2022/08/10 04:26:56;;;;;;;;;;;28.70;49.80;;;;;;796025;24;1097;-96
2022/08/10 04:27:29;;;;;;;;;;;28.60;49.80;;;;;;796481;24;896;-90
2022/08/10 04:28:11;;;;;;;;;;;28.70;49.90;;;;;;799629;24;1481;-92
2022/08/10 04:28:54;;;;;;;;;;;28.70;49.90;;;;;;781919;25;1586;-91
2022/08/10 04:29:41;;;;;;;;;;;28.70;49.70;;;;;;781862;25;1030;-91
2022/08/10 04:30:22;;;;;;;;;;;;;;;;;;;;;
2022/08/10 04:30:47;;;;;;;;;;;28.70;49.80;;;;;;774931;25;1392;-93
2022/08/10 04:31:14;;;;;;;;;;;28.70;49.80;;;;;;771555;25;1178;-92
2022/08/10 04:31:47;;;;;;;;;;;28.70;49.80;;;;;;771503;25;1253;-91
2022/08/10 04:32:23;;;;;;;;;;;28.60;49.80;;;;;;771624;25;940;-92
2022/08/10 04:33:17;;;;;;;;;;;28.70;50.00;;;;;;781403;25;1428;-91
2022/08/10 04:34:04;;;;;;;;;;;28.60;50.00;;;;;;782437;25;1300;-89
2022/08/10 04:35:14;;;;;;;;;;;28.60;50.00;;;;;;779158;25;991;-91
2022/08/10 04:35:58;;;;;;;;;;;28.70;50.00;;;;;;777286;25;1118;-91
2022/08/10 04:36:51;;;;;;;;;;;;;;;;;;;;;
2022/08/10 04:39:47;;;;;;;;;;;28.70;49.90;;;;;;769468;25;862;-91
2022/08/10 04:59:56;;;;;;;;;;;;;;;;;;;;;
2022/08/10 05:00:56;;;;;;;;;;;28.80;49.90;;;;;;852333;23;830;-94
2022/08/10 05:02:11;;;;;;;;;;;;;;;;;;;;;
2022/08/10 05:03:14;;;;;;;;;;;28.80;49.90;;;;;;848171;23;990;-95
2022/08/10 05:17:43;;;;;;;;;;;;;;;;;;866235;22;1113;-95
2022/08/10 05:18:31;;;;;;;;;;;28.70;49.90;;;;;;864591;22;981;-96
2022/08/10 05:19:18;;;;;;;;;;;28.70;50.10;;;;;;864023;23;1485;-96
2022/08/10 05:19:41;;;;;;;;;;;;;;;;;;859618;23;1320;-95
2022/08/10 05:20:44;;;;;;;;;;;;;;;;;;;;;
2022/08/10 05:21:34;;;;;;;;;;;28.60;50.40;;;;;;851321;23;949;-96
2022/08/10 05:22:17;;;;;;;;;;;28.60;50.40;;;;;;847622;23;1400;-90
2022/08/10 05:27:37;;;;;;;;;;;;;;;;;;851893;23;1059;-90
2022/08/10 05:27:59;;;;;;;;;;;28.70;50.60;;;;;;851711;23;1147;-95
2022/08/10 05:28:20;;;;;;;;;;;28.60;50.60;;;;;;850616;23;1389;-88
2022/08/10 05:28:47;;;;;;;;;;;28.60;50.60;;;;;;847799;23;1212;-90
2022/08/10 05:29:18;;;;;;;;;;;28.60;50.60;;;;;;844248;23;1336;-96
2022/08/10 05:29:44;;;;;;;;;;;;;;;;;;843897;23;1267;-95
2022/08/10 05:30:21;;;;;;;;;;;28.60;50.70;;;;;;844579;23;1212;-95
2022/08/10 05:30:49;;;;;;;;;;;28.60;50.70;;;;;;848384;23;1236;-96
2022/08/10 05:31:10;;;;;;;;;;;;;;;;;;852675;23;1253;-96
2022/08/10 05:31:50;;;;;;;;;;;28.60;50.80;;;;;;852856;23;1177;-96
2022/08/10 05:32:19;;;;;;;;;;;28.60;50.80;;;;;;848694;23;1288;-96
2022/08/10 05:34:12;;;;;;;;;;;28.60;50.80;;;;;;844549;23;1089;-94
2022/08/10 05:34:35;;;;;;;;;;;28.60;50.70;;;;;;849908;23;1054;-90
2022/08/10 05:35:25;;;;;;;;;;;;;;;;;;848015;23;1332;-96
2022/08/10 05:36:33;;;;;;;;;;;;;;;;;;;;;
2022/08/10 05:36:44;;;;;;;;;;;28.60;50.80;;;;;;840970;23;1326;-94
2022/08/10 05:37:38;;;;;;;;;;;;;;;;;;;;;
2022/08/10 05:38:37;;;;;;;;;;;;;;;;;;;;;
2022/08/10 05:40:01;;;;;;;;;;;;;;;;;;;;;
2022/08/10 05:40:31;;;;;;;;;;;28.60;51.00;;;;;;848771;23;652;-91
2022/08/10 05:40:57;;;;;;;;;;;28.60;50.90;;;;;;847816;23;1243;-96
2022/08/10 05:41:33;;;;;;;;;;;28.60;50.80;;;;;;844423;23;1205;-95
2022/08/10 05:41:59;;;;;;;;;;;28.50;50.90;;;;;;840566;23;1126;-92
2022/08/10 05:42:28;;;;;;;;;;;28.50;51.00;;;;;;839608;23;1384;-92
2022/08/10 05:43:05;;;;;;;;;;;;;;;;;;;;;